createdAt,value
2022-08-22T00:02:05.787Z,2.92
2022-08-22T00:02:41.977Z,3.20
2022-08-22T00:02:55.136Z,4.53
2022-08-22T00:03:10.557Z,3.80
2022-08-22T00:04:21.329Z,2.85
2022-08-22T00:06:38.733Z,2.97
2022-08-22T00:08:50.848Z,2.22
2022-08-22T00:11:02.599Z,2.20
2022-08-22T00:13:11.139Z,2.38
2022-08-22T00:15:43.444Z,2.28
2022-08-22T00:17:50.301Z,2.30
2022-08-22T00:20:02.121Z,2.08
2022-08-22T00:22:16.208Z,2.53
2022-08-22T00:24:30.162Z,2.38
2022-08-22T00:26:46.476Z,2.10
2022-08-22T00:28:53.377Z,2.60
2022-08-22T00:30:59.923Z,2.75
2022-08-22T00:33:06.308Z,2.88
2022-08-22T00:35:18.515Z,2.95
2022-08-22T00:37:28.689Z,3.05
2022-08-22T00:39:37.353Z,2.05
2022-08-22T00:41:59.513Z,2.47
2022-08-22T00:44:31.869Z,2.70
2022-08-22T00:47:03.593Z,2.08
2022-08-22T00:49:30.815Z,2.40
2022-08-22T00:51:59.428Z,1.95
2022-08-22T00:54:16.768Z,3.13
2022-08-22T00:56:41.717Z,2.40
2022-08-22T00:59:23.828Z,2.67
2022-08-22T01:01:32.556Z,2.50
2022-08-22T01:03:54.643Z,2.08
2022-08-22T01:06:14.936Z,2.58
2022-08-22T01:08:41.079Z,2.40
2022-08-22T01:11:01.936Z,2.28
2022-08-22T01:13:22.539Z,2.33
2022-08-22T01:15:29.228Z,2.28
2022-08-22T01:18:03.573Z,3.05
2022-08-22T01:20:32.929Z,2.40
2022-08-22T01:23:10.448Z,2.60
2022-08-22T01:25:49.785Z,2.25
2022-08-22T01:28:13.788Z,2.60
2022-08-22T01:30:47.817Z,2.50
2022-08-22T01:33:44.488Z,2.53
2022-08-22T01:38:44.878Z,2.03
2022-08-22T01:41:17.112Z,2.50
2022-08-22T01:43:51.453Z,2.10
2022-08-22T01:46:24.274Z,1.90
2022-08-22T01:48:40.210Z,2.55
2022-08-22T01:50:46.900Z,2.63
2022-08-22T01:53:00.136Z,2.15
2022-08-22T01:55:08.779Z,2.17
2022-08-22T01:57:13.232Z,2.08
2022-08-22T02:01:56.214Z,2.08
2022-08-22T02:04:05.636Z,2.45
2022-08-22T02:06:14.730Z,2.10
2022-08-22T02:08:26.583Z,2.22
2022-08-22T02:10:46.870Z,2.30
2022-08-22T02:13:03.487Z,2.35
2022-08-22T02:15:18.553Z,2.58
2022-08-22T02:17:27.336Z,2.65
2022-08-22T02:19:37.963Z,2.38
2022-08-22T02:21:47.120Z,2.33
2022-08-22T02:23:56.878Z,2.33
2022-08-22T02:26:08.387Z,2.60
2022-08-22T02:28:17.952Z,2.53
2022-08-22T02:30:23.369Z,2.40
2022-08-22T02:32:30.784Z,2.03
2022-08-22T02:34:40.127Z,2.28
2022-08-22T02:36:49.157Z,2.22
2022-08-22T02:39:04.530Z,2.20
2022-08-22T02:41:17.890Z,1.95
2022-08-22T02:43:27.628Z,2.53
2022-08-22T02:45:40.736Z,2.20
2022-08-22T02:47:56.800Z,2.47
2022-08-22T02:50:12.979Z,2.33
2022-08-22T02:52:22.669Z,2.35
2022-08-22T02:54:36.459Z,2.35
2022-08-22T02:56:45.480Z,2.10
2022-08-22T02:58:53.802Z,3.30
2022-08-22T03:01:26.216Z,2.70
2022-08-22T03:03:32.309Z,2.17
2022-08-22T03:05:48.162Z,2.17
2022-08-22T03:08:00.596Z,2.92
2022-08-22T03:10:14.824Z,2.45
2022-08-22T03:12:25.742Z,2.80
2022-08-22T03:14:33.374Z,2.35
2022-08-22T03:16:41.174Z,2.58
2022-08-22T03:18:54.149Z,2.45
2022-08-22T03:21:12.542Z,2.22
2022-08-22T03:23:34.245Z,2.67
2022-08-22T03:25:44.790Z,2.78
2022-08-22T03:27:54.659Z,2.28
2022-08-22T03:30:03.113Z,3.05
2022-08-22T03:32:13.037Z,2.10
2022-08-22T03:34:20.192Z,2.15
2022-08-22T03:36:31.322Z,2.70
2022-08-22T03:38:52.333Z,2.10
2022-08-22T03:41:25.163Z,2.10
2022-08-22T03:43:56.973Z,2.58
2022-08-22T03:46:39.141Z,2.60
2022-08-22T03:49:05.671Z,2.30
2022-08-22T03:51:23.292Z,2.50
2022-08-22T03:53:41.023Z,2.00
2022-08-22T03:56:25.459Z,2.20
2022-08-22T03:58:58.569Z,2.30
2022-08-22T04:01:34.964Z,2.30
2022-08-22T04:04:10.470Z,2.15
2022-08-22T04:06:48.407Z,2.55
2022-08-22T04:09:25.825Z,2.80
2022-08-22T04:11:51.655Z,2.50
2022-08-22T04:14:10.414Z,2.55
2022-08-22T04:17:14.829Z,2.67
2022-08-22T04:19:59.919Z,2.72
2022-08-22T04:22:30.220Z,2.17
2022-08-22T04:24:59.595Z,2.60
2022-08-22T04:27:30.160Z,2.53
2022-08-22T04:29:59.269Z,2.50
2022-08-22T04:32:27.300Z,3.13
2022-08-22T04:34:53.234Z,2.45
2022-08-22T04:37:19.716Z,3.00
2022-08-22T04:39:49.216Z,2.80
2022-08-22T04:42:32.156Z,2.80
2022-08-22T04:45:01.949Z,3.00
2022-08-22T04:47:32.075Z,2.30
2022-08-22T04:50:00.952Z,2.38
2022-08-22T04:52:32.840Z,2.85
2022-08-22T04:55:04.197Z,2.35
2022-08-22T04:57:32.183Z,2.53
2022-08-22T05:00:00.363Z,2.65
2022-08-22T05:02:27.495Z,2.42
2022-08-22T05:04:52.953Z,2.65
2022-08-22T05:09:43.896Z,2.50
2022-08-22T05:12:11.980Z,2.35
2022-08-22T05:14:40.842Z,2.60
2022-08-22T05:17:05.875Z,2.50
2022-08-22T05:19:33.158Z,2.80
2022-08-22T05:21:55.433Z,2.53
2022-08-22T05:24:23.504Z,2.72
2022-08-22T05:26:53.765Z,3.33
2022-08-22T05:29:20.178Z,2.92
2022-08-22T05:31:50.069Z,2.95
2022-08-22T05:34:16.248Z,2.50
2022-08-22T05:36:24.485Z,2.90
2022-08-22T05:38:31.502Z,2.65
2022-08-22T05:40:37.795Z,2.78
2022-08-22T05:42:41.174Z,2.78
2022-08-22T05:44:44.099Z,2.83
2022-08-22T05:46:52.930Z,2.70
2022-08-22T05:49:00.590Z,2.78
2022-08-22T05:51:16.074Z,2.45
2022-08-22T05:53:30.891Z,2.55
2022-08-22T05:55:41.586Z,2.25
2022-08-22T05:57:51.182Z,3.25
2022-08-22T06:00:02.077Z,3.13
2022-08-22T06:02:19.868Z,2.60
2022-08-22T06:04:31.597Z,2.35
2022-08-22T06:06:43.486Z,2.55
2022-08-22T06:08:48.978Z,2.58
2022-08-22T06:10:55.475Z,3.42
2022-08-22T06:13:04.527Z,2.47
2022-08-22T06:15:21.004Z,2.70
2022-08-22T06:17:28.213Z,3.00
2022-08-22T06:19:33.869Z,2.72
2022-08-22T06:21:41.841Z,2.70
2022-08-22T06:23:49.255Z,3.33
2022-08-22T06:25:54.963Z,3.25
2022-08-22T06:28:01.554Z,2.58
2022-08-22T06:30:07.323Z,3.08
2022-08-22T06:32:13.996Z,3.00
2022-08-22T06:34:24.490Z,3.47
2022-08-22T06:36:33.963Z,2.97
2022-08-22T06:38:54.831Z,3.75
2022-08-22T06:41:01.469Z,2.90
2022-08-22T06:43:06.921Z,3.22
2022-08-22T06:45:13.106Z,3.17
2022-08-22T06:47:19.285Z,3.90
2022-08-22T06:49:24.182Z,4.43
2022-08-22T06:51:30.136Z,3.83
2022-08-22T06:53:37.092Z,4.65
2022-08-22T06:55:48.399Z,5.53
2022-08-22T06:57:56.435Z,5.20
2022-08-22T07:00:01.289Z,4.93
2022-08-22T07:02:11.032Z,4.85
2022-08-22T07:04:14.357Z,5.30
2022-08-22T07:06:20.026Z,4.75
2022-08-22T07:08:25.781Z,5.30
2022-08-22T07:10:28.696Z,4.22
2022-08-22T07:12:38.001Z,3.85
2022-08-22T07:14:44.208Z,3.67
2022-08-22T07:16:56.809Z,4.10
2022-08-22T07:19:00.530Z,3.63
2022-08-22T07:21:08.325Z,3.17
2022-08-22T07:23:14.926Z,3.35
2022-08-22T07:25:17.936Z,3.67
2022-08-22T07:27:37.301Z,2.58
2022-08-22T07:29:48.955Z,3.58
2022-08-22T07:31:56.865Z,3.28
2022-08-22T07:34:10.012Z,3.05
2022-08-22T07:36:23.406Z,3.35
2022-08-22T07:38:34.745Z,4.07
2022-08-22T07:40:43.783Z,3.70
2022-08-22T07:42:51.579Z,3.25
2022-08-22T07:45:06.390Z,2.92
2022-08-22T07:51:24.141Z,3.70
2022-08-22T07:53:35.020Z,3.33
2022-08-22T07:55:48.472Z,2.95
2022-08-22T08:00:01.420Z,2.90
2022-08-22T08:02:16.697Z,2.85
2022-08-22T08:04:24.733Z,2.92
2022-08-22T08:06:29.082Z,2.92
2022-08-22T08:10:40.889Z,2.70
2022-08-22T08:12:56.163Z,3.40
2022-08-22T08:15:11.504Z,2.60
2022-08-22T08:17:21.626Z,2.92
2022-08-22T08:19:25.530Z,2.70
2022-08-22T08:21:31.870Z,2.88
2022-08-22T08:23:39.681Z,2.60
2022-08-22T08:25:54.460Z,2.88
2022-08-22T08:28:17.060Z,2.85
2022-08-22T08:30:25.012Z,3.13
2022-08-22T08:32:32.543Z,3.85
2022-08-22T08:34:37.494Z,2.92
2022-08-22T08:36:51.761Z,2.72
2022-08-22T08:39:03.094Z,2.78
2022-08-22T08:41:29.469Z,2.67
2022-08-22T08:43:44.676Z,2.50
2022-08-22T08:46:10.703Z,2.33
2022-08-22T08:48:36.855Z,2.88
2022-08-22T08:50:55.039Z,2.60
2022-08-22T08:53:23.894Z,3.00
2022-08-22T08:55:42.683Z,3.03
2022-08-22T08:57:59.440Z,2.47
2022-08-22T09:00:14.463Z,4.05
2022-08-22T09:02:49.695Z,3.22
2022-08-22T09:05:19.882Z,4.05
2022-08-22T09:07:46.741Z,3.80
2022-08-22T09:10:11.252Z,2.90
2022-08-22T09:15:01.918Z,2.78
2022-08-22T09:17:34.627Z,2.97
2022-08-22T09:20:21.998Z,2.55
2022-08-22T09:23:04.947Z,3.60
2022-08-22T09:25:36.724Z,3.97
2022-08-22T09:27:49.900Z,4.03
2022-08-22T09:29:59.957Z,3.15
2022-08-22T09:32:13.045Z,3.20
2022-08-22T09:34:23.831Z,3.15
2022-08-22T09:36:33.388Z,2.55
2022-08-22T09:38:50.083Z,3.22
2022-08-22T09:41:02.880Z,2.85
2022-08-22T09:43:11.045Z,3.45
2022-08-22T09:45:38.108Z,3.55
2022-08-22T09:47:51.344Z,2.90
2022-08-22T09:50:05.814Z,2.92
2022-08-22T09:52:33.263Z,3.13
2022-08-22T09:54:45.033Z,2.75
2022-08-22T09:57:15.256Z,2.92
2022-08-22T09:59:23.984Z,2.83
2022-08-22T10:01:32.980Z,2.95
2022-08-22T10:04:21.336Z,3.92
2022-08-22T10:06:28.717Z,3.55
2022-08-22T10:08:48.486Z,3.40
2022-08-22T10:11:24.426Z,2.88
2022-08-22T10:13:38.301Z,2.40
2022-08-22T10:15:45.285Z,3.92
2022-08-22T10:18:02.749Z,3.40
2022-08-22T10:20:18.996Z,2.72
2022-08-22T10:22:35.177Z,3.15
2022-08-22T10:24:47.053Z,3.50
2022-08-22T10:26:55.338Z,2.53
2022-08-22T10:29:08.271Z,2.78
2022-08-22T10:31:29.198Z,5.07
2022-08-22T10:33:39.821Z,2.72
2022-08-22T10:35:55.989Z,3.70
2022-08-22T10:38:04.769Z,2.53
2022-08-22T10:40:14.184Z,3.33
2022-08-22T10:42:27.978Z,3.45
2022-08-22T10:44:41.837Z,3.22
2022-08-22T10:46:52.432Z,3.00
2022-08-22T10:48:59.705Z,3.08
2022-08-22T10:51:23.057Z,2.88
2022-08-22T10:53:34.717Z,3.47
2022-08-22T10:55:41.554Z,2.90
2022-08-22T10:58:09.743Z,3.35
2022-08-22T11:00:32.029Z,2.78
2022-08-22T11:02:42.231Z,3.97
2022-08-22T11:05:14.790Z,3.60
2022-08-22T11:07:40.735Z,2.92
2022-08-22T11:09:56.067Z,2.88
2022-08-22T11:12:04.479Z,2.65
2022-08-22T11:14:28.569Z,3.08
2022-08-22T11:16:55.149Z,2.75
2022-08-22T11:19:15.160Z,3.08
2022-08-22T11:21:27.023Z,2.72
2022-08-22T11:23:41.933Z,3.30
2022-08-22T11:25:53.861Z,2.88
2022-08-22T11:28:29.883Z,2.38
2022-08-22T11:30:45.714Z,2.80
2022-08-22T11:33:14.503Z,3.50
2022-08-22T11:35:23.975Z,2.80
2022-08-22T11:37:51.352Z,2.47
2022-08-22T11:40:15.514Z,2.88
2022-08-22T11:42:25.474Z,3.13
2022-08-22T11:44:50.053Z,2.58
2022-08-22T11:46:57.167Z,2.90
2022-08-22T11:49:26.788Z,2.58
2022-08-22T11:51:51.754Z,3.00
2022-08-22T11:54:04.153Z,3.35
2022-08-22T11:56:20.340Z,2.50
2022-08-22T11:58:30.933Z,3.10
2022-08-22T12:00:39.907Z,2.53
2022-08-22T12:02:58.935Z,2.85
2022-08-22T12:05:20.034Z,2.58
2022-08-22T12:07:31.170Z,2.50
2022-08-22T12:09:44.050Z,3.40
2022-08-22T12:12:00.046Z,3.10
2022-08-22T12:14:07.227Z,2.75
2022-08-22T12:16:17.566Z,2.95
2022-08-22T12:18:55.328Z,2.95
2022-08-22T12:21:18.935Z,3.03
2022-08-22T12:23:49.240Z,2.38
2022-08-22T12:26:10.659Z,3.30
2022-08-22T12:28:28.923Z,2.80
2022-08-22T12:30:37.994Z,3.05
2022-08-22T12:33:09.690Z,2.35
2022-08-22T12:35:33.364Z,2.83
2022-08-22T12:37:52.805Z,2.65
2022-08-22T12:40:26.422Z,2.90
2022-08-22T12:42:46.143Z,2.35
2022-08-22T12:45:09.661Z,2.30
2022-08-22T12:47:34.411Z,2.42
2022-08-22T12:49:52.636Z,2.78
2022-08-22T12:52:09.416Z,2.20
2022-08-22T12:54:33.656Z,3.03
2022-08-22T12:56:47.935Z,2.75
2022-08-22T12:59:19.085Z,2.50
2022-08-22T13:01:23.344Z,2.72
2022-08-22T13:03:44.086Z,2.75
2022-08-22T13:05:56.703Z,2.40
2022-08-22T13:08:07.674Z,2.33
2022-08-22T13:10:36.486Z,2.30
2022-08-22T13:12:46.391Z,2.13
2022-08-22T13:14:54.379Z,2.30
2022-08-22T13:17:01.656Z,2.50
2022-08-22T13:19:28.529Z,2.33
2022-08-22T13:21:36.082Z,2.13
2022-08-22T13:23:44.723Z,2.70
2022-08-22T13:26:10.319Z,2.53
2022-08-22T13:28:14.831Z,2.67
2022-08-22T13:30:21.739Z,2.30
2022-08-22T13:32:32.577Z,3.22
2022-08-22T13:34:43.663Z,2.30
2022-08-22T13:36:52.098Z,2.28
2022-08-22T13:39:02.576Z,3.05
2022-08-22T13:41:09.246Z,2.33
2022-08-22T13:43:18.908Z,2.55
2022-08-22T13:45:25.101Z,2.60
2022-08-22T13:47:31.765Z,2.47
2022-08-22T13:49:36.988Z,2.20
2022-08-22T13:51:48.203Z,2.22
2022-08-22T13:54:00.751Z,2.38
2022-08-22T13:56:15.868Z,2.50
2022-08-22T13:58:27.104Z,3.08
2022-08-22T14:00:59.695Z,2.00
2022-08-22T14:03:08.075Z,2.58
2022-08-22T14:05:26.270Z,2.42
2022-08-22T14:07:34.841Z,2.45
2022-08-22T14:09:51.318Z,2.53
2022-08-22T14:12:08.159Z,2.33
2022-08-22T14:14:24.076Z,2.63
2022-08-22T14:16:33.876Z,2.67
2022-08-22T14:18:45.703Z,2.40
2022-08-22T14:20:50.088Z,3.05
2022-08-22T14:23:03.480Z,2.60
2022-08-22T14:25:10.447Z,2.95
2022-08-22T14:27:17.178Z,2.25
2022-08-22T14:29:26.054Z,2.35
2022-08-22T14:31:29.914Z,2.00
2022-08-22T14:33:40.117Z,2.13
2022-08-22T14:35:52.681Z,2.67
2022-08-22T14:38:17.819Z,2.90
2022-08-22T14:42:32.253Z,2.35
2022-08-22T14:44:44.669Z,2.90
2022-08-22T14:46:52.363Z,2.38
2022-08-22T14:49:25.264Z,2.03
2022-08-22T14:51:29.080Z,2.30
2022-08-22T14:53:35.638Z,2.28
2022-08-22T14:55:40.106Z,2.22
2022-08-22T14:57:49.912Z,2.65
2022-08-22T14:59:53.908Z,2.63
2022-08-22T15:02:01.067Z,2.40
2022-08-22T15:04:08.217Z,2.60
2022-08-22T15:06:13.228Z,2.88
2022-08-22T15:08:27.405Z,2.08
2022-08-22T15:10:34.120Z,2.35
2022-08-22T15:12:46.508Z,2.25
2022-08-22T15:14:54.615Z,2.42
2022-08-22T15:17:01.482Z,2.40
2022-08-22T15:19:22.808Z,2.22
2022-08-22T15:21:29.555Z,3.03
2022-08-22T15:23:33.991Z,2.28
2022-08-22T15:25:59.754Z,1.98
2022-08-22T15:28:14.355Z,2.30
2022-08-22T15:30:33.640Z,2.33
2022-08-22T15:32:41.822Z,2.40
2022-08-22T15:34:47.670Z,2.20
2022-08-22T15:37:29.522Z,2.00
2022-08-22T15:39:39.125Z,2.42
2022-08-22T15:41:46.946Z,2.40
2022-08-22T15:43:51.844Z,2.67
2022-08-22T15:46:19.393Z,2.20
2022-08-22T15:48:30.923Z,2.20
2022-08-22T15:50:39.820Z,2.53
2022-08-22T15:53:11.311Z,2.67
2022-08-22T15:55:25.259Z,2.47
2022-08-22T15:57:31.500Z,1.85
2022-08-22T15:59:54.183Z,2.13
2022-08-22T16:02:04.874Z,2.40
2022-08-22T16:04:13.694Z,1.92
2022-08-22T16:06:46.652Z,2.40
2022-08-22T16:08:53.000Z,2.35
2022-08-22T16:11:14.803Z,2.55
2022-08-22T16:13:39.760Z,2.20
2022-08-22T16:16:00.527Z,2.25
2022-08-22T16:18:03.598Z,2.72
2022-08-22T16:20:44.112Z,1.93
2022-08-22T16:23:09.484Z,2.40
2022-08-22T16:25:12.402Z,2.25
2022-08-22T16:27:20.130Z,2.45
2022-08-22T16:29:35.519Z,2.17
2022-08-22T16:32:03.423Z,2.33
2022-08-22T16:34:25.094Z,2.10
2022-08-22T16:36:43.589Z,2.35
2022-08-22T16:38:51.797Z,2.30
2022-08-22T16:40:54.770Z,2.80
2022-08-22T16:43:14.140Z,2.28
2022-08-22T16:45:20.062Z,2.80
2022-08-22T16:47:40.584Z,2.97
2022-08-22T16:50:05.134Z,2.80
2022-08-22T16:52:39.647Z,2.63
2022-08-22T16:54:46.189Z,2.90
2022-08-22T16:57:04.049Z,2.95
2022-08-22T16:59:24.602Z,2.45
2022-08-22T17:01:59.355Z,2.53
2022-08-22T17:04:12.026Z,2.72
2022-08-22T17:06:42.303Z,2.25
2022-08-22T17:08:58.248Z,3.10
2022-08-22T17:11:15.244Z,2.20
2022-08-22T17:13:34.875Z,2.60
2022-08-22T17:15:53.173Z,2.65
2022-08-22T17:18:13.702Z,2.58
2022-08-22T17:20:29.445Z,2.40
2022-08-22T17:22:43.799Z,2.85
2022-08-22T17:24:51.889Z,2.70
2022-08-22T17:27:03.396Z,2.67
2022-08-22T17:29:23.436Z,2.80
2022-08-22T17:31:32.648Z,2.58
2022-08-22T17:34:01.491Z,2.70
2022-08-22T17:36:21.729Z,2.72
2022-08-22T17:38:48.479Z,2.67
2022-08-22T17:41:00.866Z,3.95
2022-08-22T17:43:15.649Z,3.03
2022-08-22T17:45:28.087Z,2.25
2022-08-22T17:47:40.142Z,2.63
2022-08-22T17:49:52.414Z,3.08
2022-08-22T17:52:01.116Z,3.00
2022-08-22T17:54:16.098Z,2.85
2022-08-22T17:56:23.658Z,5.75
2022-08-22T17:58:37.800Z,5.18
2022-08-22T18:00:51.992Z,3.50
2022-08-22T18:03:00.106Z,3.00
2022-08-22T18:05:09.400Z,3.00
2022-08-22T18:07:53.043Z,3.25
2022-08-22T18:09:59.847Z,2.80
2022-08-22T18:12:08.960Z,2.78
2022-08-22T18:14:25.716Z,2.03
2022-08-22T18:16:32.297Z,2.75
2022-08-22T18:18:39.903Z,2.38
2022-08-22T18:20:50.727Z,2.63
2022-08-22T18:22:57.774Z,3.35
2022-08-22T18:25:04.445Z,2.65
2022-08-22T18:27:34.662Z,3.35
2022-08-22T18:29:46.057Z,3.17
2022-08-22T18:31:54.611Z,2.50
2022-08-22T18:34:04.025Z,2.60
2022-08-22T18:36:14.591Z,2.00
2022-08-22T18:38:24.306Z,3.50
2022-08-22T18:40:46.835Z,2.63
2022-08-22T18:42:59.675Z,2.60
2022-08-22T18:45:04.616Z,2.50
2022-08-22T18:47:17.346Z,2.22
2022-08-22T18:49:43.864Z,2.17
2022-08-22T18:52:15.793Z,2.30
2022-08-22T18:54:32.163Z,4.13
2022-08-22T18:56:50.094Z,4.43
2022-08-22T18:59:06.195Z,4.10
2022-08-22T19:01:45.038Z,3.75
2022-08-22T19:04:08.342Z,3.22
2022-08-22T19:06:32.886Z,3.63
2022-08-22T19:09:11.778Z,2.85
2022-08-22T19:11:35.123Z,3.38
2022-08-22T19:16:14.049Z,3.42
2022-08-22T19:18:34.418Z,3.88
2022-08-22T19:20:57.669Z,2.72
2022-08-22T19:23:36.896Z,3.13
2022-08-22T19:26:18.090Z,2.95
2022-08-22T19:28:36.044Z,2.95
2022-08-22T19:30:43.780Z,2.67
2022-08-22T19:32:59.902Z,2.78
2022-08-22T19:35:20.081Z,2.50
2022-08-22T19:37:32.972Z,2.70
2022-08-22T19:39:54.687Z,2.95
2022-08-22T19:41:59.432Z,2.97
2022-08-22T19:44:03.846Z,2.60
2022-08-22T19:46:10.064Z,2.80
2022-08-22T19:48:14.532Z,3.10
2022-08-22T19:50:30.181Z,2.63
2022-08-22T19:52:55.251Z,2.40
2022-08-22T19:55:04.712Z,2.90
2022-08-22T19:57:17.223Z,3.03
2022-08-22T19:59:31.554Z,3.08
2022-08-22T20:01:43.834Z,2.83
2022-08-22T20:03:53.666Z,3.00
2022-08-22T20:06:05.466Z,3.30
2022-08-22T20:08:40.850Z,2.90
2022-08-22T20:10:58.646Z,3.17
2022-08-22T20:13:07.596Z,2.92
2022-08-22T20:15:20.247Z,2.65
2022-08-22T20:17:42.242Z,2.20
2022-08-22T20:22:18.593Z,2.22
2022-08-22T20:24:27.993Z,1.98
2022-08-22T20:26:31.495Z,2.30
2022-08-22T20:28:41.060Z,2.35
2022-08-22T20:30:51.584Z,2.30
2022-08-22T20:32:59.533Z,1.80
2022-08-22T20:35:05.556Z,2.95
2022-08-22T20:37:29.637Z,2.13
2022-08-22T20:39:40.243Z,2.50
2022-08-22T20:41:46.935Z,2.38
2022-08-22T20:43:52.907Z,2.60
2022-08-22T20:46:07.120Z,2.20
2022-08-22T20:48:11.488Z,2.15
2022-08-22T20:50:14.412Z,2.35
2022-08-22T20:52:26.829Z,2.28
2022-08-22T20:54:31.692Z,2.13
2022-08-22T20:56:48.667Z,1.95
2022-08-22T20:59:00.934Z,1.92
2022-08-22T21:01:07.664Z,2.05
2022-08-22T21:03:22.934Z,1.95
2022-08-22T21:05:32.698Z,2.10
2022-08-22T21:07:38.483Z,2.00
2022-08-22T21:09:58.803Z,1.98
2022-08-22T21:12:02.272Z,2.00
2022-08-22T21:14:19.364Z,1.95
2022-08-22T21:16:31.674Z,1.38
2022-08-22T21:18:36.691Z,2.05
2022-08-22T21:20:39.983Z,1.83
2022-08-22T21:22:43.244Z,2.20
2022-08-22T21:24:47.185Z,1.80
2022-08-22T21:26:55.014Z,1.63
2022-08-22T21:29:01.758Z,1.92
2022-08-22T21:31:13.011Z,1.60
2022-08-22T21:33:23.621Z,2.08
2022-08-22T21:35:31.103Z,2.17
2022-08-22T21:37:39.703Z,2.03
2022-08-22T21:39:46.101Z,1.58
2022-08-22T21:41:51.588Z,2.40
2022-08-22T21:43:54.698Z,2.30
2022-08-22T21:45:57.745Z,1.95
2022-08-22T21:48:02.032Z,2.20
2022-08-22T21:52:27.092Z,2.20
2022-08-22T21:54:41.004Z,2.50
2022-08-22T21:56:43.922Z,2.13
2022-08-22T21:58:46.965Z,2.55
2022-08-22T22:00:52.010Z,2.25
2022-08-22T22:03:00.930Z,2.15
2022-08-22T22:05:11.328Z,2.38
2022-08-22T22:07:14.591Z,2.47
2022-08-22T22:09:18.428Z,2.30
2022-08-22T22:11:21.384Z,1.88
2022-08-22T22:13:27.135Z,2.35
2022-08-22T22:15:34.974Z,1.92
2022-08-22T22:17:37.827Z,2.63
2022-08-22T22:19:40.687Z,1.98
2022-08-22T22:21:45.300Z,2.10
2022-08-22T22:23:49.277Z,2.05
2022-08-22T22:25:53.428Z,2.08
2022-08-22T22:27:56.402Z,1.98
2022-08-22T22:30:01.193Z,2.25
2022-08-22T22:32:04.827Z,1.92
2022-08-22T22:34:07.686Z,2.28
2022-08-22T22:36:15.308Z,2.50
2022-08-22T22:38:23.714Z,2.00
2022-08-22T22:40:27.139Z,1.80
2022-08-22T22:42:30.047Z,2.05
2022-08-22T22:44:32.898Z,2.10
2022-08-22T22:46:35.738Z,1.98
2022-08-22T22:48:38.569Z,1.92
2022-08-22T22:50:43.982Z,1.77
2022-08-22T22:52:46.873Z,2.15
2022-08-22T22:54:51.146Z,2.15
2022-08-22T22:59:00.753Z,2.05
2022-08-22T23:01:19.334Z,2.10
2022-08-22T23:03:22.702Z,1.85
2022-08-22T23:05:25.522Z,2.65
2022-08-22T23:07:28.757Z,2.40
2022-08-22T23:09:38.341Z,2.28
2022-08-22T23:11:48.648Z,2.40
2022-08-22T23:13:51.825Z,1.95
2022-08-22T23:15:54.665Z,1.95
2022-08-22T23:17:57.551Z,2.15
2022-08-22T23:20:01.169Z,2.08
2022-08-22T23:22:04.034Z,1.90
2022-08-22T23:24:08.881Z,2.00
2022-08-22T23:26:12.754Z,2.25
2022-08-22T23:28:16.891Z,2.00
2022-08-22T23:30:19.808Z,2.17
2022-08-22T23:32:22.669Z,1.73
2022-08-22T23:34:29.839Z,2.30
2022-08-22T23:36:32.846Z,2.33
2022-08-22T23:38:35.692Z,2.40
2022-08-22T23:40:38.516Z,1.95
2022-08-22T23:42:41.308Z,2.42
2022-08-22T23:44:46.264Z,2.03
2022-08-22T23:46:49.261Z,1.80
2022-08-22T23:48:52.284Z,2.13
2022-08-22T23:50:55.096Z,2.13
2022-08-22T23:52:57.910Z,2.15
2022-08-22T23:55:00.730Z,2.40
2022-08-22T23:57:11.860Z,2.17
2022-08-22T23:59:18.131Z,2.28
